createdAt,value
2019-04-06T00:01:11.491Z,10.80
2019-04-06T00:03:40.003Z,10.80
2019-04-06T00:06:08.337Z,10.80
2019-04-06T00:08:36.814Z,10.70
2019-04-06T00:11:05.451Z,10.70
2019-04-06T00:13:34.008Z,10.70
2019-04-06T00:16:02.479Z,10.60
2019-04-06T00:18:30.836Z,10.60
2019-04-06T00:20:59.107Z,10.50
2019-04-06T00:23:27.411Z,10.50
2019-04-06T00:25:55.874Z,10.40
2019-04-06T00:28:24.270Z,10.40
2019-04-06T00:31:03.527Z,10.40
2019-04-06T00:33:33.088Z,10.40
2019-04-06T00:36:01.620Z,10.40
2019-04-06T00:38:30.136Z,10.40
2019-04-06T00:40:58.483Z,10.50
2019-04-06T00:43:26.810Z,10.50
2019-04-06T00:45:56.004Z,10.40
2019-04-06T00:48:24.310Z,10.50
2019-04-06T00:50:52.572Z,10.50
2019-04-06T00:53:21.161Z,10.50
2019-04-06T00:55:55.490Z,10.50
2019-04-06T00:58:20.365Z,10.60
2019-04-06T01:00:48.775Z,10.60
2019-04-06T01:03:17.216Z,10.60
2019-04-06T01:05:45.858Z,10.70
2019-04-06T01:08:14.199Z,10.80
2019-04-06T01:10:42.538Z,10.90
2019-04-06T01:13:10.984Z,10.80
2019-04-06T01:15:39.598Z,10.80
2019-04-06T01:18:07.864Z,10.80
2019-04-06T01:20:36.129Z,10.90
2019-04-06T01:23:04.592Z,10.90
2019-04-06T01:25:33.140Z,11.00
2019-04-06T01:28:01.475Z,11.00
2019-04-06T01:30:29.970Z,11.00
2019-04-06T01:32:58.514Z,11.00
2019-04-06T01:35:27.074Z,10.80
2019-04-06T01:37:55.620Z,10.70
2019-04-06T01:40:24.039Z,10.60
2019-04-06T01:42:52.470Z,10.60
2019-04-06T01:45:20.869Z,10.60
2019-04-06T01:47:49.997Z,10.60
2019-04-06T01:50:18.380Z,10.60
2019-04-06T01:52:46.908Z,10.60
2019-04-06T01:55:15.541Z,10.60
2019-04-06T01:57:44.003Z,10.60
2019-04-06T02:00:14.110Z,10.60
2019-04-06T02:02:43.637Z,10.70
2019-04-06T02:05:11.987Z,10.70
2019-04-06T02:07:40.600Z,10.60
2019-04-06T02:10:09.058Z,10.60
2019-04-06T02:12:37.399Z,10.50
2019-04-06T02:15:06.175Z,10.50
2019-04-06T02:17:34.433Z,10.50
2019-04-06T02:20:02.883Z,10.50
2019-04-06T02:22:33.240Z,10.60
2019-04-06T02:25:01.820Z,10.50
2019-04-06T02:27:30.392Z,10.50
2019-04-06T02:30:19.260Z,10.50
2019-04-06T02:33:07.653Z,10.50
2019-04-06T02:35:55.517Z,10.50
2019-04-06T02:38:41.758Z,10.50
2019-04-06T02:41:12.209Z,10.50
2019-04-06T02:43:41.918Z,10.50
2019-04-06T02:46:10.369Z,10.50
2019-04-06T02:48:39.591Z,10.60
2019-04-06T02:51:08.098Z,10.50
2019-04-06T02:53:36.450Z,10.50
2019-04-06T02:56:05.015Z,10.50
2019-04-06T02:58:33.615Z,10.50
2019-04-06T03:01:02.132Z,10.60
2019-04-06T03:03:30.606Z,10.80
2019-04-06T03:05:59.220Z,10.80
2019-04-06T03:08:27.826Z,10.80
2019-04-06T03:10:56.251Z,10.90
2019-04-06T03:13:24.660Z,10.90
2019-04-06T03:15:53.234Z,10.90
2019-04-06T03:18:21.651Z,10.90
2019-04-06T03:20:50.252Z,10.80
2019-04-06T03:23:18.887Z,10.80
2019-04-06T03:25:47.385Z,10.80
2019-04-06T03:28:15.843Z,10.70
2019-04-06T03:30:44.564Z,10.70
2019-04-06T03:33:13.445Z,10.70
2019-04-06T03:35:46.995Z,10.70
2019-04-06T03:38:12.394Z,10.70
2019-04-06T03:40:40.923Z,10.70
2019-04-06T03:43:09.511Z,10.70
2019-04-06T03:45:37.833Z,10.70
2019-04-06T03:48:06.363Z,10.70
2019-04-06T03:50:34.659Z,10.80
2019-04-06T03:53:03.072Z,11.00
2019-04-06T03:55:31.519Z,11.00
2019-04-06T03:58:00.163Z,11.00
2019-04-06T04:00:28.531Z,11.00
2019-04-06T04:02:57.443Z,10.90
2019-04-06T04:05:26.045Z,11.00
2019-04-06T04:07:55.133Z,11.00
2019-04-06T04:10:29.966Z,11.00
2019-04-06T04:12:58.378Z,11.00
2019-04-06T04:15:26.921Z,10.80
2019-04-06T04:17:55.378Z,10.60
2019-04-06T04:20:23.742Z,10.60
2019-04-06T04:22:52.414Z,10.60
2019-04-06T04:25:20.815Z,10.50
2019-04-06T04:27:49.247Z,10.50
2019-04-06T04:30:31.515Z,10.50
2019-04-06T04:32:46.999Z,10.50
2019-04-06T04:35:18.158Z,10.50
2019-04-06T04:37:44.765Z,10.50
2019-04-06T04:40:13.475Z,10.50
2019-04-06T04:42:42.001Z,10.50
2019-04-06T04:45:10.356Z,10.60
2019-04-06T04:47:38.653Z,10.60
2019-04-06T04:50:08.031Z,10.60
2019-04-06T04:52:37.156Z,10.60
2019-04-06T04:55:06.856Z,10.60
2019-04-06T04:57:40.868Z,10.60
2019-04-06T05:00:04.784Z,10.50
2019-04-06T05:02:33.233Z,10.60
2019-04-06T05:05:01.575Z,10.60
2019-04-06T05:07:30.065Z,10.60
2019-04-06T05:09:58.352Z,10.50
2019-04-06T05:12:26.654Z,10.40
2019-04-06T05:15:00.289Z,10.30
2019-04-06T05:17:28.680Z,10.30
2019-04-06T05:19:57.047Z,10.20
2019-04-06T05:22:25.340Z,10.10
2019-04-06T05:24:53.735Z,10.00
2019-04-06T05:27:22.110Z,10.00
2019-04-06T05:29:50.406Z,10.10
2019-04-06T05:32:18.866Z,10.30
2019-04-06T05:34:47.194Z,10.40
2019-04-06T05:37:15.498Z,10.40
2019-04-06T05:39:43.788Z,10.40
2019-04-06T05:42:12.070Z,10.40
2019-04-06T05:44:40.379Z,10.40
2019-04-06T05:47:08.700Z,10.40
2019-04-06T05:49:37.009Z,10.50
2019-04-06T05:52:05.302Z,10.40
2019-04-06T05:54:34.416Z,10.50
2019-04-06T05:57:02.766Z,10.50
2019-04-06T05:59:31.199Z,10.60
2019-04-06T06:01:59.737Z,10.60
2019-04-06T06:04:28.265Z,10.60
2019-04-06T06:06:56.593Z,10.70
2019-04-06T06:09:24.954Z,10.70
2019-04-06T06:11:55.504Z,10.80
2019-04-06T06:14:23.632Z,10.80
2019-04-06T06:16:52.210Z,10.80
2019-04-06T06:19:20.999Z,10.80
2019-04-06T06:21:49.655Z,10.80
2019-04-06T06:24:18.114Z,10.70
2019-04-06T06:26:46.638Z,10.60
2019-04-06T06:29:15.147Z,10.70
2019-04-06T06:31:43.720Z,10.70
2019-04-06T06:34:12.086Z,10.80
2019-04-06T06:36:40.996Z,10.80
2019-04-06T06:39:09.458Z,10.90
2019-04-06T06:41:37.763Z,11.00
2019-04-06T06:44:06.048Z,11.00
2019-04-06T06:46:34.519Z,11.10
2019-04-06T06:49:03.219Z,11.00
2019-04-06T06:51:31.670Z,11.10
2019-04-06T06:54:00.487Z,11.00
2019-04-06T06:56:29.166Z,10.90
2019-04-06T06:58:57.599Z,10.90
2019-04-06T07:01:26.352Z,11.00
2019-04-06T07:03:54.720Z,11.10
2019-04-06T07:06:23.212Z,10.90
2019-04-06T07:08:51.760Z,10.80
2019-04-06T07:11:20.576Z,10.80
2019-04-06T07:13:48.905Z,10.80
2019-04-06T07:16:17.330Z,10.90
2019-04-06T07:18:46.159Z,10.80
2019-04-06T07:21:16.571Z,10.80
2019-04-06T07:23:43.878Z,10.60
2019-04-06T07:26:12.285Z,10.50
2019-04-06T07:28:40.734Z,10.50
2019-04-06T07:31:09.029Z,10.50
2019-04-06T07:33:40.322Z,10.50
2019-04-06T07:36:08.828Z,10.50
2019-04-06T07:38:38.312Z,10.40
2019-04-06T07:41:06.855Z,10.20
2019-04-06T07:43:35.228Z,10.30
2019-04-06T07:46:03.942Z,10.30
2019-04-06T07:48:32.441Z,10.30
2019-04-06T07:51:00.976Z,10.30
2019-04-06T07:53:29.463Z,10.40
2019-04-06T07:55:57.749Z,10.40
2019-04-06T07:58:26.087Z,10.40
2019-04-06T08:00:57.400Z,10.40
2019-04-06T08:03:25.969Z,10.50
2019-04-06T08:05:54.679Z,10.70
2019-04-06T08:08:23.047Z,10.90
2019-04-06T08:10:51.505Z,11.10
2019-04-06T08:13:20.718Z,11.40
2019-04-06T08:15:49.601Z,11.80
2019-04-06T08:18:18.233Z,12.20
2019-04-06T08:20:46.596Z,12.70
2019-04-06T08:23:15.185Z,13.10
2019-04-06T08:25:43.456Z,13.30
2019-04-06T08:28:11.965Z,13.50
2019-04-06T08:30:46.355Z,13.60
2019-04-06T08:33:09.791Z,13.70
2019-04-06T08:35:38.283Z,13.80
2019-04-06T08:38:06.556Z,14.10
2019-04-06T08:40:34.882Z,14.30
2019-04-06T08:43:03.459Z,14.40
2019-04-06T08:45:32.017Z,14.30
2019-04-06T08:48:00.527Z,14.20
2019-04-06T08:50:29.026Z,14.30
2019-04-06T08:52:57.669Z,14.10
2019-04-06T08:55:26.009Z,14.00
2019-04-06T08:57:54.455Z,14.00
2019-04-06T09:00:23.297Z,14.00
2019-04-06T09:02:52.159Z,13.80
2019-04-06T09:05:20.517Z,13.50
2019-04-06T09:07:49.054Z,13.30
2019-04-06T09:10:17.469Z,13.30
2019-04-06T09:12:45.913Z,13.20
2019-04-06T09:15:14.441Z,13.20
2019-04-06T09:17:42.790Z,13.30
2019-04-06T09:20:11.263Z,13.20
2019-04-06T09:22:39.606Z,13.30
2019-04-06T09:25:07.918Z,13.30
2019-04-06T09:27:36.292Z,13.40
2019-04-06T09:30:07.419Z,13.50
2019-04-06T09:32:35.850Z,13.70
2019-04-06T09:35:05.216Z,13.70
2019-04-06T09:37:33.514Z,13.60
2019-04-06T09:40:01.926Z,13.60
2019-04-06T09:42:30.665Z,13.50
2019-04-06T09:45:00.778Z,13.30
2019-04-06T09:47:42.249Z,13.30
2019-04-06T09:50:15.039Z,13.20
2019-04-06T09:53:01.253Z,13.10
2019-04-06T09:55:31.265Z,13.00
2019-04-06T09:58:12.780Z,12.90
2019-04-06T10:00:45.924Z,12.90
2019-04-06T10:03:15.839Z,13.00
2019-04-06T10:05:45.744Z,13.20
2019-04-06T10:08:15.937Z,13.30
2019-04-06T10:10:55.031Z,13.30
2019-04-06T10:13:41.274Z,13.30
2019-04-06T10:16:17.278Z,13.30
2019-04-06T10:18:53.350Z,13.20
2019-04-06T10:21:39.953Z,13.10
2019-04-06T10:24:19.480Z,13.10
2019-04-06T10:26:58.702Z,12.90
2019-04-06T10:29:48.907Z,12.80
2019-04-06T10:32:33.321Z,12.70
2019-04-06T10:35:15.921Z,12.70
2019-04-06T10:38:03.406Z,12.70
2019-04-06T10:40:33.534Z,12.70
2019-04-06T10:43:08.694Z,12.60
2019-04-06T10:49:04.151Z,12.50
2019-04-06T10:51:46.970Z,12.40
2019-04-06T10:54:23.265Z,12.20
2019-04-06T10:57:09.855Z,12.10
2019-04-06T10:59:39.910Z,12.10
2019-04-06T11:02:25.643Z,12.10
2019-04-06T11:05:04.590Z,12.10
2019-04-06T11:07:34.600Z,11.90
2019-04-06T11:10:07.088Z,11.90
2019-04-06T11:12:49.371Z,11.80
2019-04-06T11:15:22.742Z,11.70
2019-04-06T11:17:55.749Z,11.60
2019-04-06T11:20:25.855Z,11.30
2019-04-06T11:23:01.844Z,11.20
2019-04-06T11:25:45.088Z,11.10
2019-04-06T11:28:17.869Z,11.00
2019-04-06T11:30:50.578Z,10.90
2019-04-06T11:33:29.544Z,10.80
2019-04-06T11:36:19.200Z,10.70
2019-04-06T11:38:49.518Z,10.70
2019-04-06T11:41:19.888Z,10.80
2019-04-06T11:44:01.772Z,10.80
2019-04-06T11:46:34.900Z,10.70
2019-04-06T11:49:05.660Z,10.60
2019-04-06T11:51:48.036Z,10.60
2019-04-06T11:54:32.968Z,10.50
2019-04-06T11:57:03.333Z,10.50
2019-04-06T11:59:45.414Z,10.40
2019-04-06T12:02:24.577Z,10.40
2019-04-06T12:04:54.641Z,10.30
2019-04-06T12:07:27.242Z,10.30
2019-04-06T12:10:11.903Z,10.20
2019-04-06T12:12:44.785Z,10.20
2019-04-06T12:15:17.345Z,10.20
2019-04-06T12:17:50.421Z,10.10
2019-04-06T12:20:20.785Z,10.10
2019-04-06T12:22:53.460Z,10.10
2019-04-06T12:25:26.439Z,10.20
2019-04-06T12:27:56.554Z,10.20
2019-04-06T12:30:37.366Z,10.30
2019-04-06T12:33:01.699Z,10.20
2019-04-06T12:35:40.688Z,10.20
2019-04-06T12:38:25.399Z,10.20
2019-04-06T12:41:01.579Z,10.20
2019-04-06T12:43:35.343Z,10.30
2019-04-06T12:46:14.770Z,10.30
2019-04-06T12:48:52.525Z,10.20
2019-04-06T12:51:28.544Z,10.20
2019-04-06T12:54:01.714Z,10.10
2019-04-06T12:56:48.806Z,10.00
2019-04-06T12:59:25.912Z,10.00
2019-04-06T13:02:02.570Z,9.90
2019-04-06T13:04:51.157Z,9.80
2019-04-06T13:07:39.241Z,9.90
2019-04-06T13:10:12.337Z,9.90
2019-04-06T13:13:00.562Z,9.90
2019-04-06T13:15:49.227Z,9.90
2019-04-06T13:18:19.448Z,10.00
2019-04-06T13:20:59.044Z,10.10
2019-04-06T13:23:44.731Z,10.30
2019-04-06T13:26:31.168Z,10.30
2019-04-06T13:29:04.141Z,10.50
2019-04-06T13:31:50.514Z,10.60
2019-04-06T13:34:39.224Z,10.70
2019-04-06T13:37:10.222Z,10.60
2019-04-06T13:39:52.308Z,10.60
2019-04-06T13:42:28.033Z,10.50
2019-04-06T13:45:10.548Z,10.50
2019-04-06T13:47:56.927Z,10.40
2019-04-06T13:50:29.628Z,10.40
2019-04-06T13:53:02.536Z,10.50
2019-04-06T13:55:50.326Z,10.50
2019-04-06T13:58:20.310Z,10.50
2019-04-06T14:00:49.703Z,10.60
2019-04-06T14:03:25.665Z,10.70
2019-04-06T14:06:12.857Z,10.80
2019-04-06T14:08:43.328Z,10.90
2019-04-06T14:11:29.674Z,11.00
2019-04-06T14:14:08.389Z,11.00
2019-04-06T14:16:53.760Z,10.90
2019-04-06T14:19:29.849Z,10.90
2019-04-06T14:22:05.516Z,10.90
2019-04-06T14:24:38.427Z,10.80
2019-04-06T14:27:17.761Z,10.70
2019-04-06T14:29:56.876Z,10.60
2019-04-06T14:32:26.850Z,10.60
2019-04-06T14:35:08.601Z,10.50
2019-04-06T14:37:41.538Z,10.50
2019-04-06T14:40:17.502Z,10.60
2019-04-06T14:42:48.223Z,10.50
2019-04-06T14:45:33.463Z,10.40
2019-04-06T14:48:20.129Z,10.50
2019-04-06T14:50:59.442Z,10.50
2019-04-06T14:53:32.634Z,10.50
2019-04-06T14:56:08.925Z,10.50
2019-04-06T14:58:42.671Z,10.40
2019-04-06T15:01:15.683Z,10.40
2019-04-06T15:03:48.921Z,10.30
2019-04-06T15:06:31.961Z,10.30
2019-04-06T15:09:08.062Z,10.30
2019-04-06T15:11:40.927Z,10.20
2019-04-06T15:14:26.297Z,10.20
2019-04-06T15:16:59.235Z,10.20
2019-04-06T15:19:35.735Z,10.20
2019-04-06T15:22:14.842Z,10.20
2019-04-06T15:24:45.416Z,10.10
2019-04-06T15:27:32.206Z,10.00
2019-04-06T15:30:08.025Z,10.00
2019-04-06T15:32:40.689Z,10.00
2019-04-06T15:35:16.554Z,10.00
2019-04-06T15:38:02.573Z,10.00
2019-04-06T15:40:34.312Z,10.10
2019-04-06T15:43:18.820Z,10.10
2019-04-06T15:45:48.487Z,10.10
2019-04-06T15:48:38.012Z,10.10
2019-04-06T15:51:06.066Z,10.10
2019-04-06T15:53:42.323Z,10.00
2019-04-06T15:56:12.492Z,10.00
2019-04-06T15:58:58.680Z,9.90
2019-04-06T16:01:40.805Z,9.80
2019-04-06T16:04:29.146Z,9.80
2019-04-06T16:06:59.213Z,9.80
2019-04-06T16:09:28.460Z,9.80
2019-04-06T16:12:04.233Z,9.70
2019-04-06T16:14:40.371Z,9.70
2019-04-06T16:17:28.397Z,9.70
2019-04-06T16:19:58.405Z,9.70
2019-04-06T16:22:30.311Z,9.70
2019-04-06T16:25:00.348Z,9.60
2019-04-06T16:27:46.133Z,9.60
2019-04-06T16:30:22.356Z,9.60
2019-04-06T16:33:10.804Z,9.60
2019-04-06T16:35:46.529Z,9.60
2019-04-06T16:38:16.981Z,9.50
2019-04-06T16:40:49.979Z,9.40
2019-04-06T16:43:29.191Z,9.40
2019-04-06T16:46:04.909Z,9.40
2019-04-06T16:48:51.408Z,9.40
2019-04-06T16:51:21.434Z,9.40
2019-04-06T16:53:53.477Z,9.30
2019-04-06T16:56:24.347Z,9.30
2019-04-06T16:58:55.297Z,9.20
2019-04-06T17:01:31.169Z,9.20
2019-04-06T17:04:07.083Z,9.10
2019-04-06T17:06:53.296Z,9.20
2019-04-06T17:09:35.601Z,9.10
2019-04-06T17:12:06.119Z,9.10
2019-04-06T17:14:52.930Z,9.20
2019-04-06T17:17:23.169Z,9.20
2019-04-06T17:20:05.146Z,9.10
2019-04-06T17:22:38.308Z,9.10
2019-04-06T17:25:24.520Z,9.00
2019-04-06T17:28:03.191Z,9.00
2019-04-06T17:30:33.210Z,8.90
2019-04-06T17:33:02.759Z,8.90
2019-04-06T17:35:44.808Z,8.80
2019-04-06T17:38:23.851Z,8.80
2019-04-06T17:40:53.895Z,8.70
2019-04-06T17:43:23.149Z,8.70
2019-04-06T17:46:09.747Z,8.70
2019-04-06T17:48:39.864Z,8.60
2019-04-06T17:51:18.688Z,8.50
2019-04-06T17:53:49.053Z,8.50
2019-04-06T17:56:25.569Z,8.40
2019-04-06T17:58:58.406Z,8.40
2019-04-06T18:01:36.333Z,8.40
2019-04-06T18:04:09.422Z,8.40
2019-04-06T18:06:49.477Z,8.30
2019-04-06T18:09:19.700Z,8.20
2019-04-06T18:12:09.091Z,8.20
2019-04-06T18:14:37.875Z,8.20
2019-04-06T18:17:06.657Z,8.20
2019-04-06T18:19:36.014Z,8.20
2019-04-06T18:22:04.588Z,8.20
2019-04-06T18:24:33.074Z,8.20
2019-04-06T18:27:03.241Z,8.20
2019-04-06T18:29:32.014Z,8.10
2019-04-06T18:32:02.880Z,8.20
2019-04-06T18:34:32.130Z,8.10
2019-04-06T18:37:07.977Z,8.20
2019-04-06T18:39:36.348Z,8.20
2019-04-06T18:42:05.212Z,8.20
2019-04-06T18:44:33.664Z,8.20
2019-04-06T18:47:02.302Z,8.20
2019-04-06T18:49:30.758Z,8.20
2019-04-06T18:51:59.316Z,8.20
2019-04-06T18:54:27.811Z,8.20
2019-04-06T18:56:56.787Z,8.20
2019-04-06T18:59:25.366Z,8.20
2019-04-06T19:01:54.117Z,8.20
2019-04-06T19:04:22.709Z,8.20
2019-04-06T19:06:51.063Z,8.10
2019-04-06T19:09:23.775Z,8.00
2019-04-06T19:11:55.519Z,8.00
2019-04-06T19:14:18.841Z,7.90
2019-04-06T19:16:47.168Z,7.80
2019-04-06T19:19:15.438Z,7.70
2019-04-06T19:21:44.415Z,7.70
2019-04-06T19:24:13.771Z,7.60
2019-04-06T19:26:42.225Z,7.60
2019-04-06T19:29:10.910Z,7.60
2019-04-06T19:31:39.483Z,7.70
2019-04-06T19:34:07.852Z,7.80
2019-04-06T19:36:36.287Z,7.80
2019-04-06T19:39:07.632Z,7.90
2019-04-06T19:41:35.938Z,8.00
2019-04-06T19:44:04.651Z,8.00
2019-04-06T19:46:33.126Z,8.00
2019-04-06T19:49:01.809Z,8.00
2019-04-06T19:51:30.223Z,8.10
2019-04-06T19:53:58.581Z,8.10
2019-04-06T19:56:27.650Z,8.20
2019-04-06T19:58:56.385Z,8.20
2019-04-06T20:01:24.913Z,8.20
2019-04-06T20:03:53.329Z,8.30
2019-04-06T20:06:21.754Z,8.30
2019-04-06T20:08:50.165Z,8.30
2019-04-06T20:11:19.191Z,8.30
2019-04-06T20:13:47.966Z,8.20
2019-04-06T20:16:16.369Z,8.00
2019-04-06T20:18:44.737Z,7.90
2019-04-06T20:21:13.028Z,7.90
2019-04-06T20:23:41.395Z,7.90
2019-04-06T20:26:09.826Z,7.90
2019-04-06T20:28:38.110Z,7.90
2019-04-06T20:31:06.529Z,7.90
2019-04-06T20:33:46.388Z,7.90
2019-04-06T20:36:04.713Z,7.90
2019-04-06T20:38:33.138Z,8.00
2019-04-06T20:41:01.774Z,8.00
2019-04-06T20:43:30.455Z,8.00
2019-04-06T20:46:01.149Z,8.00
2019-04-06T20:48:29.654Z,8.00
2019-04-06T20:50:58.454Z,8.00
2019-04-06T20:53:26.953Z,7.90
2019-04-06T20:55:55.304Z,7.90
2019-04-06T20:58:23.884Z,7.80
2019-04-06T21:00:52.469Z,7.80
2019-04-06T21:03:21.371Z,7.80
2019-04-06T21:05:51.252Z,7.80
2019-04-06T21:08:20.081Z,7.70
2019-04-06T21:10:48.655Z,7.70
2019-04-06T21:13:17.461Z,7.70
2019-04-06T21:15:46.191Z,7.60
2019-04-06T21:18:14.663Z,7.60
2019-04-06T21:20:43.150Z,7.60
2019-04-06T21:23:11.907Z,7.50
2019-04-06T21:25:40.464Z,7.50
2019-04-06T21:28:10.560Z,7.40
2019-04-06T21:30:39.081Z,7.50
2019-04-06T21:33:07.943Z,7.50
2019-04-06T21:35:36.822Z,7.50
2019-04-06T21:38:05.606Z,7.60
2019-04-06T21:40:34.127Z,7.60
2019-04-06T21:43:03.081Z,7.60
2019-04-06T21:45:31.561Z,7.60
2019-04-06T21:48:00.429Z,7.60
2019-04-06T21:50:29.303Z,7.60
2019-04-06T21:52:57.883Z,7.60
2019-04-06T21:55:26.573Z,7.60
2019-04-06T21:57:55.338Z,7.50
2019-04-06T22:00:38.789Z,7.50
2019-04-06T22:03:07.151Z,7.40
2019-04-06T22:05:36.225Z,7.30
2019-04-06T22:08:04.971Z,7.20
2019-04-06T22:10:34.295Z,7.30
2019-04-06T22:13:02.810Z,7.20
2019-04-06T22:15:31.425Z,7.20
2019-04-06T22:18:00.243Z,7.20
2019-04-06T22:20:28.860Z,7.10
2019-04-06T22:22:57.347Z,7.00
2019-04-06T22:25:25.834Z,7.00
2019-04-06T22:27:54.343Z,6.90
2019-04-06T22:30:22.748Z,6.90
2019-04-06T22:32:51.397Z,6.80
2019-04-06T22:35:20.400Z,6.80
2019-04-06T22:37:49.665Z,6.80
2019-04-06T22:40:18.611Z,6.80
2019-04-06T22:42:47.115Z,6.80
2019-04-06T22:45:17.466Z,6.80
2019-04-06T22:47:46.303Z,6.80
2019-04-06T22:50:15.361Z,6.90
2019-04-06T22:52:43.804Z,7.00
2019-04-06T22:55:12.081Z,7.00
2019-04-06T22:57:40.919Z,7.00
2019-04-06T23:00:12.377Z,7.10
2019-04-06T23:02:42.769Z,7.00
2019-04-06T23:05:16.207Z,7.00
2019-04-06T23:07:45.136Z,7.00
2019-04-06T23:10:13.521Z,7.00
2019-04-06T23:12:42.357Z,6.90
2019-04-06T23:15:11.603Z,6.70
2019-04-06T23:17:40.190Z,6.60
2019-04-06T23:20:08.534Z,6.50
2019-04-06T23:22:36.895Z,6.30
2019-04-06T23:25:05.454Z,6.20
2019-04-06T23:27:34.171Z,6.10
2019-04-06T23:30:02.785Z,5.90
2019-04-06T23:32:31.925Z,5.90
2019-04-06T23:35:02.343Z,5.70
2019-04-06T23:37:31.123Z,5.70
2019-04-06T23:39:59.484Z,5.60
2019-04-06T23:42:27.775Z,5.50
2019-04-06T23:44:56.218Z,5.40
2019-04-06T23:47:25.368Z,5.40
2019-04-06T23:49:53.703Z,5.30
2019-04-06T23:52:22.772Z,5.30
2019-04-06T23:54:51.307Z,5.30
2019-04-06T23:57:20.870Z,5.30
2019-04-06T23:59:49.905Z,5.30
